Time;durP1;ratioP1;P1;durP2;ratioP2;P2;SDS_P1;SDS_P2;PMS_P1;PMS_P2;Temp;Humidity;BMP_temperature;BMP_pressure;BME280_temperature;BME280_humidity;BME280_pressure;Samples;Min_cycle;Max_cycle;Signal;HPM_P1;HPM_P2
2021/03/09 00:06:53;;;;;;;2.20;1.52;;;;;;;;;;4375877;28;20509;-56
2021/03/09 00:09:19;;;;;;;3.53;1.67;;;;;;;;;;4176923;34;20207;-56
2021/03/09 00:11:45;;;;;;;2.60;1.37;;;;;;;;;;4177007;34;20557;-56
2021/03/09 00:14:11;;;;;;;1.83;1.40;;;;;;;;;;4176863;34;20533;-55
2021/03/09 00:16:37;;;;;;;2.12;1.50;;;;;;;;;;4176771;34;20114;-57
2021/03/09 00:19:03;;;;;;;2.12;1.60;;;;;;;;;;4176787;34;20108;-56
2021/03/09 00:21:29;;;;;;;1.87;1.25;;;;;;;;;;4176653;34;20142;-56
2021/03/09 00:23:54;;;;;;;2.35;1.40;;;;;;;;;;4176683;34;20124;-57
2021/03/09 00:26:20;;;;;;;1.62;1.48;;;;;;;;;;4176709;34;20569;-57
2021/03/09 00:28:46;;;;;;;2.45;1.40;;;;;;;;;;4176785;34;20661;-56
2021/03/09 00:31:12;;;;;;;1.58;1.40;;;;;;;;;;4163924;34;20552;-57
2021/03/09 00:33:38;;;;;;;2.35;1.52;;;;;;;;;;4176631;34;20494;-56
2021/03/09 00:36:04;;;;;;;2.25;1.50;;;;;;;;;;4176643;34;20110;-56
2021/03/09 00:38:30;;;;;;;1.60;1.15;;;;;;;;;;4176521;34;20123;-57
2021/03/09 00:40:55;;;;;;;1.37;1.23;;;;;;;;;;4176448;34;20133;-57
2021/03/09 00:43:21;;;;;;;2.22;1.33;;;;;;;;;;4176539;34;20125;-57
2021/03/09 00:45:47;;;;;;;1.95;1.33;;;;;;;;;;4176194;34;20110;-56
2021/03/09 00:48:13;;;;;;;2.35;1.42;;;;;;;;;;4176282;34;20099;-57
2021/03/09 00:50:39;;;;;;;2.75;1.80;;;;;;;;;;4176242;34;20113;-57
2021/03/09 00:53:05;;;;;;;1.40;1.30;;;;;;;;;;4178456;34;20549;-57
2021/03/09 00:55:31;;;;;;;2.12;1.25;;;;;;;;;;4178445;34;20144;-57
2021/03/09 00:57:57;;;;;;;1.37;1.20;;;;;;;;;;4178464;34;20511;-57
2021/03/09 01:00:24;;;;;;;2.55;1.65;;;;;;;;;;4178454;34;20102;-56
2021/03/09 01:02:50;;;;;;;2.25;1.40;;;;;;;;;;4178523;34;20129;-57
2021/03/09 01:05:16;;;;;;;2.08;1.35;;;;;;;;;;4178226;34;20107;-56
2021/03/09 01:07:42;;;;;;;1.75;1.45;;;;;;;;;;4177330;34;20097;-57
2021/03/09 01:10:09;;;;;;;2.12;1.60;;;;;;;;;;4165639;34;20547;-57
2021/03/09 01:12:35;;;;;;;3.80;1.40;;;;;;;;;;4165877;34;20109;-57
2021/03/09 01:15:01;;;;;;;3.28;1.83;;;;;;;;;;4165615;34;20209;-56
2021/03/09 01:17:27;;;;;;;1.70;1.37;;;;;;;;;;4178244;34;20210;-57
2021/03/09 01:19:53;;;;;;;3.62;1.58;;;;;;;;;;4165839;34;20219;-56
2021/03/09 01:22:22;;;;;;;2.25;1.20;;;;;;;;;;4178299;34;20585;-56
2021/03/09 01:24:48;;;;;;;2.25;1.42;;;;;;;;;;4178359;34;20103;-56
2021/03/09 01:27:13;;;;;;;2.60;1.70;;;;;;;;;;4178194;34;20110;-56
2021/03/09 01:29:39;;;;;;;3.72;1.70;;;;;;;;;;4178542;34;20099;-57
2021/03/09 01:32:06;;;;;;;2.95;2.00;;;;;;;;;;4178467;34;20128;-58
2021/03/09 01:34:31;;;;;;;1.92;1.40;;;;;;;;;;4178301;34;20499;-57
2021/03/09 01:36:57;;;;;;;2.60;1.60;;;;;;;;;;4165197;34;20178;-58
2021/03/09 01:39:23;;;;;;;1.65;1.50;;;;;;;;;;4178464;34;20114;-58
2021/03/09 01:41:49;;;;;;;1.30;1.20;;;;;;;;;;4178241;34;20129;-58
2021/03/09 01:44:15;;;;;;;1.80;1.50;;;;;;;;;;4178229;34;20711;-57
2021/03/09 01:46:41;;;;;;;2.70;1.55;;;;;;;;;;4178187;34;20593;-58
2021/03/09 01:49:08;;;;;;;3.28;1.58;;;;;;;;;;4178308;34;20131;-58
2021/03/09 01:51:33;;;;;;;3.42;1.48;;;;;;;;;;4178086;34;20149;-57
2021/03/09 01:53:59;;;;;;;1.75;1.65;;;;;;;;;;4154304;34;20118;-57
2021/03/09 01:56:25;;;;;;;1.50;1.40;;;;;;;;;;4177972;34;20121;-56
2021/03/09 01:58:51;;;;;;;3.83;1.60;;;;;;;;;;4165283;34;20099;-57
2021/03/09 02:01:17;;;;;;;2.70;1.30;;;;;;;;;;4165202;34;20124;-56
2021/03/09 02:03:43;;;;;;;2.62;1.50;;;;;;;;;;4178030;34;20136;-57
2021/03/09 02:06:18;;;;;;;2.12;1.60;;;;;;;;;;4178003;34;20131;-56
2021/03/09 02:08:45;;;;;;;1.77;1.60;;;;;;;;;;4178117;34;20447;-56
2021/03/09 02:11:33;;;;;;;2.28;1.30;;;;;;;;;;4165212;34;20215;-56
2021/03/09 02:14:07;;;;;;;1.95;1.58;;;;;;;;;;4165341;34;20107;-56
2021/03/09 02:16:34;;;;;;;3.00;1.35;;;;;;;;;;4165276;34;20111;-57
2021/03/09 02:19:32;;;;;;;3.28;2.70;;;;;;;;;;4165258;34;20225;-56
2021/03/09 02:22:28;;;;;;;2.75;2.00;;;;;;;;;;4174884;34;20551;-57
2021/03/09 02:25:35;;;;;;;2.00;1.80;;;;;;;;;;4165222;34;20113;-56
2021/03/09 02:28:07;;;;;;;2.03;1.73;;;;;;;;;;4150787;34;20133;-57
2021/03/09 02:30:34;;;;;;;2.10;1.80;;;;;;;;;;4177716;34;20199;-57
2021/03/09 02:33:27;;;;;;;2.05;1.83;;;;;;;;;;4165071;34;20099;-56
2021/03/09 02:35:55;;;;;;;3.40;1.98;;;;;;;;;;4165301;34;20123;-58
2021/03/09 02:38:21;;;;;;;3.33;1.90;;;;;;;;;;4177561;34;20137;-59
2021/03/09 02:40:48;;;;;;;3.00;1.83;;;;;;;;;;4164953;34;20141;-59
2021/03/09 02:43:15;;;;;;;2.00;1.50;;;;;;;;;;4165047;34;20148;-57
2021/03/09 02:45:41;;;;;;;1.65;1.40;;;;;;;;;;4177875;34;20131;-57
2021/03/09 02:48:07;;;;;;;2.42;1.65;;;;;;;;;;4164790;34;20524;-57
2021/03/09 02:50:33;;;;;;;2.33;1.85;;;;;;;;;;4164976;34;20138;-57
2021/03/09 02:53:07;;;;;;;3.20;1.90;;;;;;;;;;4164850;34;20127;-57
2021/03/09 02:55:33;;;;;;;1.85;1.58;;;;;;;;;;4164963;34;20095;-54
2021/03/09 02:57:59;;;;;;;2.47;2.00;;;;;;;;;;4164967;34;20533;-58
2021/03/09 03:00:25;;;;;;;2.80;1.80;;;;;;;;;;4164718;34;20118;-59
2021/03/09 03:02:51;;;;;;;3.25;1.73;;;;;;;;;;4164993;34;20290;-58
2021/03/09 03:05:17;;;;;;;2.30;1.77;;;;;;;;;;4164510;34;20542;-57
2021/03/09 03:07:43;;;;;;;3.87;1.80;;;;;;;;;;4164587;34;20128;-55
2021/03/09 03:10:14;;;;;;;3.90;2.00;;;;;;;;;;4164452;34;20142;-57
2021/03/09 03:12:41;;;;;;;3.05;1.85;;;;;;;;;;4177250;34;20102;-56
2021/03/09 03:15:07;;;;;;;5.60;2.25;;;;;;;;;;4164174;34;20138;-56
2021/03/09 03:17:33;;;;;;;3.00;2.10;;;;;;;;;;4164811;34;20486;-59
2021/03/09 03:19:59;;;;;;;4.00;2.30;;;;;;;;;;4164867;34;20209;-58
2021/03/09 03:22:25;;;;;;;4.12;2.40;;;;;;;;;;4164708;34;20145;-58
2021/03/09 03:24:51;;;;;;;3.83;2.50;;;;;;;;;;4164755;34;20113;-58
2021/03/09 03:27:17;;;;;;;4.15;2.53;;;;;;;;;;4164392;34;20521;-58
2021/03/09 03:29:44;;;;;;;3.58;2.25;;;;;;;;;;4177047;34;20201;-58
2021/03/09 03:32:09;;;;;;;3.95;2.20;;;;;;;;;;4175764;34;20106;-58
2021/03/09 03:34:35;;;;;;;6.32;2.70;;;;;;;;;;4164446;34;20552;-58
2021/03/09 03:37:01;;;;;;;3.45;2.53;;;;;;;;;;4164256;34;20125;-58
2021/03/09 03:39:27;;;;;;;4.20;2.53;;;;;;;;;;4177427;34;20118;-58
2021/03/09 03:41:53;;;;;;;5.18;2.70;;;;;;;;;;4164156;34;20123;-58
2021/03/09 03:44:19;;;;;;;4.95;2.65;;;;;;;;;;4164409;34;20293;-57
2021/03/09 03:46:45;;;;;;;6.35;2.55;;;;;;;;;;4176999;34;20126;-58
2021/03/09 03:49:10;;;;;;;4.60;2.60;;;;;;;;;;4176998;34;20537;-57
2021/03/09 03:51:39;;;;;;;4.80;2.83;;;;;;;;;;4177137;34;20118;-58
2021/03/09 03:54:13;;;;;;;6.18;3.17;;;;;;;;;;4177169;34;20121;-58
2021/03/09 03:56:49;;;;;;;5.60;3.08;;;;;;;;;;4176999;34;20555;-59
2021/03/09 03:59:18;;;;;;;7.07;3.00;;;;;;;;;;4164530;34;20118;-57
2021/03/09 04:01:44;;;;;;;5.57;3.30;;;;;;;;;;4164213;34;20115;-58
2021/03/09 04:04:13;;;;;;;4.68;3.20;;;;;;;;;;4164272;34;20118;-58
2021/03/09 04:06:44;;;;;;;5.35;3.10;;;;;;;;;;4176822;34;20495;-58
2021/03/09 04:09:10;;;;;;;4.28;2.92;;;;;;;;;;4164458;34;20102;-57
2021/03/09 04:11:37;;;;;;;5.37;2.90;;;;;;;;;;4164247;34;20202;-57
2021/03/09 04:14:03;;;;;;;5.82;2.95;;;;;;;;;;4164198;34;20545;-58
2021/03/09 04:16:30;;;;;;;8.13;3.60;;;;;;;;;;4164048;34;20218;-58
2021/03/09 04:18:56;;;;;;;14.98;3.67;;;;;;;;;;4164170;34;20291;-58
2021/03/09 04:21:22;;;;;;;5.75;3.78;;;;;;;;;;4163963;34;20494;-60
2021/03/09 04:23:48;;;;;;;6.55;3.67;;;;;;;;;;4164228;34;20185;-59
2021/03/09 04:26:14;;;;;;;4.47;3.28;;;;;;;;;;4164219;34;20549;-59
2021/03/09 04:28:40;;;;;;;5.70;3.60;;;;;;;;;;4165978;34;20551;-59
2021/03/09 04:31:06;;;;;;;6.37;4.22;;;;;;;;;;4165926;34;20121;-59
2021/03/09 04:33:32;;;;;;;8.45;4.37;;;;;;;;;;4165966;34;20487;-59
2021/03/09 04:35:58;;;;;;;7.65;4.62;;;;;;;;;;4165918;34;20524;-61
2021/03/09 04:38:24;;;;;;;7.47;4.75;;;;;;;;;;4178609;34;20193;-61
2021/03/09 04:40:50;;;;;;;7.55;5.03;;;;;;;;;;4178845;34;20091;-59
2021/03/09 04:43:17;;;;;;;8.13;5.15;;;;;;;;;;4165812;34;20213;-59
2021/03/09 04:45:43;;;;;;;8.80;5.47;;;;;;;;;;4178552;34;20690;-59
2021/03/09 04:48:09;;;;;;;9.23;5.70;;;;;;;;;;4178667;34;20121;-60
2021/03/09 04:50:35;;;;;;;9.07;5.30;;;;;;;;;;4166018;34;20484;-60
2021/03/09 04:53:01;;;;;;;7.15;4.20;;;;;;;;;;4165840;34;20134;-60
2021/03/09 04:55:27;;;;;;;7.35;4.32;;;;;;;;;;4178659;34;20587;-61
2021/03/09 04:57:53;;;;;;;7.22;4.37;;;;;;;;;;4178642;34;20109;-59
2021/03/09 05:00:23;;;;;;;6.15;4.35;;;;;;;;;;4178368;34;20119;-58
2021/03/09 05:02:50;;;;;;;10.27;5.10;;;;;;;;;;4178463;34;20094;-59
2021/03/09 05:05:16;;;;;;;8.85;5.95;;;;;;;;;;4178444;34;20470;-62
2021/03/09 05:07:42;;;;;;;7.50;5.32;;;;;;;;;;4178512;34;20137;-59
2021/03/09 05:10:09;;;;;;;7.50;5.40;;;;;;;;;;4178443;34;20107;-60
2021/03/09 05:12:38;;;;;;;8.18;5.25;;;;;;;;;;4178391;34;20459;-61
2021/03/09 05:15:05;;;;;;;10.18;4.45;;;;;;;;;;4178361;34;20443;-60
2021/03/09 05:17:30;;;;;;;8.45;5.10;;;;;;;;;;4178480;34;20117;-60
2021/03/09 05:19:56;;;;;;;7.15;4.78;;;;;;;;;;4178372;34;20110;-60
2021/03/09 05:22:22;;;;;;;9.70;4.90;;;;;;;;;;4178595;34;20103;-59
2021/03/09 05:24:48;;;;;;;8.82;5.00;;;;;;;;;;4178192;34;20108;-60
2021/03/09 05:27:14;;;;;;;8.85;5.28;;;;;;;;;;4178194;34;20134;-60
2021/03/09 05:29:40;;;;;;;12.55;6.65;;;;;;;;;;4178231;34;20119;-60
2021/03/09 05:32:06;;;;;;;11.90;5.75;;;;;;;;;;4178327;34;20142;-61
2021/03/09 05:34:32;;;;;;;12.00;5.32;;;;;;;;;;4178448;34;20140;-61
2021/03/09 05:36:58;;;;;;;12.32;5.72;;;;;;;;;;4177655;34;20566;-60
2021/03/09 05:39:24;;;;;;;13.95;6.65;;;;;;;;;;4178201;34;20121;-60
2021/03/09 05:41:49;;;;;;;13.23;6.18;;;;;;;;;;4178069;34;20584;-62
2021/03/09 05:44:15;;;;;;;15.02;6.70;;;;;;;;;;4178137;34;20142;-61
2021/03/09 05:46:41;;;;;;;14.60;6.60;;;;;;;;;;4165344;34;20217;-61
2021/03/09 05:49:08;;;;;;;11.75;6.43;;;;;;;;;;4177987;34;20133;-61
2021/03/09 05:51:33;;;;;;;15.48;6.72;;;;;;;;;;4178191;34;20197;-61
2021/03/09 05:53:59;;;;;;;13.38;7.18;;;;;;;;;;4165446;34;20137;-60
2021/03/09 05:56:25;;;;;;;15.52;8.00;;;;;;;;;;4186679;34;20129;-61
2021/03/09 05:58:54;;;;;;;17.10;8.18;;;;;;;;;;4191845;34;20543;-61
2021/03/09 06:01:20;;;;;;;14.32;7.90;;;;;;;;;;4176546;34;20140;-60
2021/03/09 06:03:46;;;;;;;14.35;7.80;;;;;;;;;;4181176;34;20118;-60
2021/03/09 06:06:12;;;;;;;13.15;7.82;;;;;;;;;;4191321;34;20469;-61
2021/03/09 06:08:38;;;;;;;15.43;7.60;;;;;;;;;;4191688;34;20545;-60
2021/03/09 06:11:15;;;;;;;18.15;9.30;;;;;;;;;;4191482;34;20149;-61
2021/03/09 06:13:41;;;;;;;18.10;9.50;;;;;;;;;;4191522;34;20125;-61
2021/03/09 06:16:07;;;;;;;17.73;9.60;;;;;;;;;;4191372;34;20153;-61
2021/03/09 06:18:33;;;;;;;16.80;9.15;;;;;;;;;;4178647;34;20540;-60
2021/03/09 06:21:09;;;;;;;14.18;7.35;;;;;;;;;;4191209;34;20141;-60
2021/03/09 06:23:35;;;;;;;11.55;5.62;;;;;;;;;;4191555;34;21189;-60
2021/03/09 06:26:01;;;;;;;11.88;6.70;;;;;;;;;;4191357;34;20094;-60
2021/03/09 06:28:31;;;;;;;10.07;5.40;;;;;;;;;;4191419;34;20122;-61
2021/03/09 06:31:01;;;;;;;9.07;4.93;;;;;;;;;;4191487;34;20109;-60
2021/03/09 06:33:28;;;;;;;6.90;4.90;;;;;;;;;;4191425;34;20121;-60
2021/03/09 06:35:55;;;;;;;8.45;4.60;;;;;;;;;;4191380;34;20125;-61
2021/03/09 06:38:27;;;;;;;7.57;5.72;;;;;;;;;;4191282;34;20203;-61
2021/03/09 06:41:10;;;;;;;8.65;5.90;;;;;;;;;;4191593;34;20216;-60
2021/03/09 06:43:37;;;;;;;10.30;5.62;;;;;;;;;;4191294;34;20105;-61
2021/03/09 06:46:14;;;;;;;9.57;5.60;;;;;;;;;;4191351;34;20282;-60
2021/03/09 06:48:40;;;;;;;7.90;4.90;;;;;;;;;;4190672;34;20098;-61
2021/03/09 06:51:06;;;;;;;8.13;4.78;;;;;;;;;;4190983;34;20122;-60
2021/03/09 06:53:32;;;;;;;9.02;4.18;;;;;;;;;;4191180;34;20128;-61
2021/03/09 06:55:58;;;;;;;6.28;4.20;;;;;;;;;;4191066;34;20102;-61
2021/03/09 06:58:28;;;;;;;2.95;1.87;;;;;;;;;;4191181;34;20181;-61
2021/03/09 07:00:55;;;;;;;2.78;2.45;;;;;;;;;;4191126;34;20122;-61
2021/03/09 07:03:34;;;;;;;7.93;4.18;;;;;;;;;;4191132;34;20100;-60
2021/03/09 07:06:00;;;;;;;7.82;4.53;;;;;;;;;;4190792;34;20155;-60
2021/03/09 07:08:26;;;;;;;7.22;4.62;;;;;;;;;;4191288;34;20526;-62
2021/03/09 07:10:53;;;;;;;8.73;5.12;;;;;;;;;;4191412;34;20117;-62
2021/03/09 07:13:24;;;;;;;7.28;4.72;;;;;;;;;;4191304;34;20145;-61
2021/03/09 07:15:54;;;;;;;8.55;5.30;;;;;;;;;;4176571;34;20129;-61
2021/03/09 07:18:24;;;;;;;8.10;5.18;;;;;;;;;;4188748;34;20112;-61
2021/03/09 07:20:51;;;;;;;10.95;5.37;;;;;;;;;;4189019;34;20198;-61
2021/03/09 07:23:22;;;;;;;8.70;5.22;;;;;;;;;;4189578;34;20149;-61
2021/03/09 07:26:09;;;;;;;6.85;4.32;;;;;;;;;;4191019;34;20185;-60
2021/03/09 07:28:36;;;;;;;6.43;4.30;;;;;;;;;;4191047;34;20523;-60
2021/03/09 07:31:03;;;;;;;9.45;5.30;;;;;;;;;;4190756;34;20141;-60
2021/03/09 07:33:30;;;;;;;9.90;4.28;;;;;;;;;;4178339;34;20126;-60
2021/03/09 07:35:56;;;;;;;6.93;3.70;;;;;;;;;;4190541;34;20114;-60
2021/03/09 07:38:22;;;;;;;6.03;3.75;;;;;;;;;;4190638;34;20138;-60
2021/03/09 07:40:48;;;;;;;4.93;3.20;;;;;;;;;;4177954;34;20553;-62
2021/03/09 07:43:14;;;;;;;8.60;4.30;;;;;;;;;;4177979;34;20242;-60
2021/03/09 07:45:40;;;;;;;7.43;4.43;;;;;;;;;;4190709;34;20190;-59
2021/03/09 07:48:07;;;;;;;12.55;5.50;;;;;;;;;;4178204;34;20106;-60
2021/03/09 07:50:41;;;;;;;9.68;4.90;;;;;;;;;;4178005;34;20194;-60
2021/03/09 07:53:14;;;;;;;12.50;6.20;;;;;;;;;;4191005;34;20113;-60
2021/03/09 07:55:40;;;;;;;9.05;5.20;;;;;;;;;;4190559;34;20216;-61
2021/03/09 07:58:19;;;;;;;9.90;5.53;;;;;;;;;;4190553;34;20527;-60
2021/03/09 08:00:58;;;;;;;8.38;4.75;;;;;;;;;;4192534;34;20101;-60
2021/03/09 08:03:32;;;;;;;9.35;5.25;;;;;;;;;;4195124;34;20121;-61
2021/03/09 08:06:02;;;;;;;8.52;4.93;;;;;;;;;;4194791;34;20136;-61
2021/03/09 08:08:44;;;;;;;11.12;5.22;;;;;;;;;;4182406;34;20118;-61
2021/03/09 08:11:19;;;;;;;8.82;4.82;;;;;;;;;;4191288;34;20523;-61
2021/03/09 08:14:03;;;;;;;6.18;4.10;;;;;;;;;;4194635;34;20125;-61
2021/03/09 08:16:30;;;;;;;5.50;3.62;;;;;;;;;;4194489;34;20109;-61
2021/03/09 08:18:58;;;;;;;10.93;4.60;;;;;;;;;;4194855;34;20094;-60
2021/03/09 08:21:39;;;;;;;8.23;3.62;;;;;;;;;;4194704;34;20117;-60
2021/03/09 08:24:08;;;;;;;6.95;3.45;;;;;;;;;;4195176;34;20157;-60
2021/03/09 08:26:34;;;;;;;5.68;3.05;;;;;;;;;;4194581;34;20531;-61
2021/03/09 08:29:00;;;;;;;5.12;2.65;;;;;;;;;;4195048;34;20105;-61
2021/03/09 08:31:26;;;;;;;2.95;2.03;;;;;;;;;;4194551;34;20118;-61
2021/03/09 08:33:53;;;;;;;2.67;2.05;;;;;;;;;;4181747;34;20145;-60
2021/03/09 08:39:00;;;;;;;3.75;2.30;;;;;;;;;;4191207;34;20114;-60
2021/03/09 08:41:36;;;;;;;3.90;2.75;;;;;;;;;;4194535;34;20570;-60
2021/03/09 08:44:17;;;;;;;6.65;3.60;;;;;;;;;;4193960;34;20117;-59
2021/03/09 08:47:08;;;;;;;7.28;3.58;;;;;;;;;;4192548;34;20539;-60
2021/03/09 08:49:34;;;;;;;7.95;3.78;;;;;;;;;;4192414;34;20098;-60
2021/03/09 08:52:04;;;;;;;5.75;3.65;;;;;;;;;;4192275;34;20214;-60
2021/03/09 08:54:37;;;;;;;3.97;2.90;;;;;;;;;;4192474;34;20129;-60
2021/03/09 08:57:33;;;;;;;3.55;2.65;;;;;;;;;;4192266;34;20216;-61
2021/03/09 09:00:10;;;;;;;6.03;3.17;;;;;;;;;;4193455;34;20129;-60
2021/03/09 09:02:42;;;;;;;5.93;2.65;;;;;;;;;;4194450;34;20213;-60
2021/03/09 09:05:08;;;;;;;6.03;2.85;;;;;;;;;;4193910;34;20117;-61
2021/03/09 09:07:39;;;;;;;6.93;3.75;;;;;;;;;;4193862;34;20141;-60
2021/03/09 09:10:25;;;;;;;8.32;4.10;;;;;;;;;;4194450;34;20106;-60
2021/03/09 09:12:57;;;;;;;5.43;3.30;;;;;;;;;;4192498;34;20118;-59
2021/03/09 09:15:24;;;;;;;5.82;3.25;;;;;;;;;;4192295;34;20113;-60
2021/03/09 09:17:54;;;;;;;8.02;2.95;;;;;;;;;;4192250;34;20147;-60
2021/03/09 09:20:37;;;;;;;6.55;3.72;;;;;;;;;;4189294;34;20118;-60
2021/03/09 09:23:14;;;;;;;3.90;2.90;;;;;;;;;;4191936;34;20106;-62
2021/03/09 09:25:43;;;;;;;4.57;2.70;;;;;;;;;;4191656;34;20102;-61
2021/03/09 09:28:17;;;;;;;3.78;2.78;;;;;;;;;;4191947;34;20347;-60
2021/03/09 09:30:43;;;;;;;4.05;2.60;;;;;;;;;;4178909;34;20095;-59
2021/03/09 09:33:10;;;;;;;4.97;2.75;;;;;;;;;;4190257;34;20120;-59
2021/03/09 09:35:35;;;;;;;3.75;2.70;;;;;;;;;;4189577;34;20118;-61
2021/03/09 09:38:10;;;;;;;3.42;2.05;;;;;;;;;;4189445;34;20137;-61
2021/03/09 09:40:38;;;;;;;4.50;2.62;;;;;;;;;;4189713;34;20152;-60
2021/03/09 09:43:11;;;;;;;5.18;2.65;;;;;;;;;;4189552;34;20106;-60
2021/03/09 09:45:48;;;;;;;4.22;2.78;;;;;;;;;;4176965;34;20118;-61
2021/03/09 09:48:22;;;;;;;3.10;2.40;;;;;;;;;;4177311;34;20543;-60
2021/03/09 09:50:52;;;;;;;3.10;2.20;;;;;;;;;;4177407;34;20107;-59
2021/03/09 09:53:32;;;;;;;4.53;2.22;;;;;;;;;;4191821;34;20201;-60
2021/03/09 09:55:58;;;;;;;3.92;2.30;;;;;;;;;;4178961;34;20128;-60
2021/03/09 09:58:46;;;;;;;3.85;2.28;;;;;;;;;;4191596;34;20090;-60
2021/03/09 10:01:36;;;;;;;3.70;2.42;;;;;;;;;;4191573;34;20129;-60
2021/03/09 10:04:09;;;;;;;4.20;2.90;;;;;;;;;;4191938;34;20189;-61
2021/03/09 10:06:48;;;;;;;7.40;3.35;;;;;;;;;;4167672;34;20189;-60
2021/03/09 10:09:19;;;;;;;6.05;3.55;;;;;;;;;;4191704;34;20125;-60
2021/03/09 10:11:53;;;;;;;6.85;3.42;;;;;;;;;;4191866;34;20106;-60
2021/03/09 10:14:21;;;;;;;7.50;4.72;;;;;;;;;;4191649;34;20137;-60
2021/03/09 10:16:47;;;;;;;10.00;5.32;;;;;;;;;;4191572;34;20536;-60
2021/03/09 10:19:18;;;;;;;7.07;4.55;;;;;;;;;;4179076;34;20130;-60
2021/03/09 10:21:44;;;;;;;6.40;3.80;;;;;;;;;;4191808;34;20164;-60
2021/03/09 10:24:31;;;;;;;6.65;3.60;;;;;;;;;;4190755;34;20129;-59
2021/03/09 10:26:58;;;;;;;6.30;2.95;;;;;;;;;;4178730;34;20125;-61
2021/03/09 10:29:28;;;;;;;5.70;2.60;;;;;;;;;;4191476;34;20094;-60
2021/03/09 10:31:58;;;;;;;3.83;2.45;;;;;;;;;;4191346;34;20546;-60
2021/03/09 10:34:40;;;;;;;3.40;2.35;;;;;;;;;;4191393;34;20108;-61
2021/03/09 10:37:07;;;;;;;3.53;2.03;;;;;;;;;;4191602;34;20529;-55
2021/03/09 10:39:34;;;;;;;2.42;2.17;;;;;;;;;;4191674;34;20157;-57
2021/03/09 10:42:26;;;;;;;2.60;2.00;;;;;;;;;;4191203;34;20117;-59
2021/03/09 10:44:53;;;;;;;5.87;3.08;;;;;;;;;;4191395;34;20104;-58
2021/03/09 10:47:19;;;;;;;5.87;3.50;;;;;;;;;;4191453;34;20562;-58
2021/03/09 10:49:45;;;;;;;7.70;3.65;;;;;;;;;;4191293;34;20129;-59
2021/03/09 10:52:11;;;;;;;4.57;3.47;;;;;;;;;;4191140;34;20320;-58
2021/03/09 10:54:37;;;;;;;6.60;4.03;;;;;;;;;;4191334;34;20317;-60
2021/03/09 10:57:07;;;;;;;4.82;3.42;;;;;;;;;;4178176;34;20289;-58
2021/03/09 10:59:33;;;;;;;3.00;2.55;;;;;;;;;;4191484;34;20107;-59
2021/03/09 11:01:59;;;;;;;3.40;2.70;;;;;;;;;;4166847;34;20122;-58
2021/03/09 11:04:25;;;;;;;4.10;2.90;;;;;;;;;;4191125;34;20106;-58
2021/03/09 11:06:51;;;;;;;2.87;2.60;;;;;;;;;;4190663;34;20098;-58
2021/03/09 11:09:17;;;;;;;3.33;2.28;;;;;;;;;;4178367;34;20124;-57
2021/03/09 11:11:44;;;;;;;4.32;2.50;;;;;;;;;;4191067;34;20446;-58
2021/03/09 11:14:10;;;;;;;4.32;2.35;;;;;;;;;;4190938;34;20535;-57
2021/03/09 11:16:36;;;;;;;7.28;2.72;;;;;;;;;;4190943;34;20116;-59
2021/03/09 11:19:02;;;;;;;2.90;2.28;;;;;;;;;;4191161;34;20114;-57
2021/03/09 11:21:28;;;;;;;2.72;2.33;;;;;;;;;;4191029;34;20102;-58
2021/03/09 11:23:54;;;;;;;3.95;2.58;;;;;;;;;;4191032;34;20098;-56
2021/03/09 11:26:23;;;;;;;4.35;2.55;;;;;;;;;;4190945;34;20202;-58
2021/03/09 11:28:50;;;;;;;3.75;2.70;;;;;;;;;;4191448;34;20478;-58
2021/03/09 11:31:16;;;;;;;5.10;2.97;;;;;;;;;;4178326;34;20141;-57
2021/03/09 11:33:42;;;;;;;3.75;2.65;;;;;;;;;;4191202;34;20148;-56
2021/03/09 11:36:09;;;;;;;5.72;2.97;;;;;;;;;;4177434;34;20542;-55
2021/03/09 11:38:35;;;;;;;5.18;3.10;;;;;;;;;;4178203;34;20126;-54
2021/03/09 11:41:02;;;;;;;3.78;2.80;;;;;;;;;;4177792;34;20125;-55
2021/03/09 11:43:28;;;;;;;4.45;2.62;;;;;;;;;;4190829;34;20117;-54
2021/03/09 11:45:55;;;;;;;2.72;2.30;;;;;;;;;;4190731;34;20140;-52
2021/03/09 11:48:21;;;;;;;3.90;2.97;;;;;;;;;;4190620;34;20134;-56
2021/03/09 11:50:46;;;;;;;6.60;3.20;;;;;;;;;;4190665;34;20126;-59
2021/03/09 11:53:12;;;;;;;5.62;3.20;;;;;;;;;;4190738;34;20471;-58
2021/03/09 11:55:38;;;;;;;3.97;3.10;;;;;;;;;;4190930;34;20109;-59
2021/03/09 11:58:04;;;;;;;4.00;2.58;;;;;;;;;;4190669;34;20167;-58
2021/03/09 12:00:30;;;;;;;4.55;2.92;;;;;;;;;;4190513;34;20145;-60
2021/03/09 12:02:56;;;;;;;4.03;2.65;;;;;;;;;;4190527;34;20118;-59
2021/03/09 12:05:23;;;;;;;5.30;2.85;;;;;;;;;;4190533;34;20126;-58
2021/03/09 12:07:49;;;;;;;4.68;3.37;;;;;;;;;;4190368;34;20125;-57
2021/03/09 12:10:15;;;;;;;4.47;3.15;;;;;;;;;;4190686;34;20623;-57
2021/03/09 12:12:42;;;;;;;4.75;3.75;;;;;;;;;;4190448;34;20106;-58
2021/03/09 12:15:08;;;;;;;4.53;2.60;;;;;;;;;;4190377;34;20108;-54
2021/03/09 12:17:34;;;;;;;5.00;3.55;;;;;;;;;;4190569;34;20467;-56
2021/03/09 12:20:00;;;;;;;5.78;2.83;;;;;;;;;;4190354;34;20198;-58
2021/03/09 12:22:26;;;;;;;5.35;2.90;;;;;;;;;;4190550;34;20106;-58
2021/03/09 12:24:52;;;;;;;5.78;2.75;;;;;;;;;;4190381;34;20110;-58
2021/03/09 12:27:18;;;;;;;3.80;2.50;;;;;;;;;;4190185;34;20116;-57
2021/03/09 12:29:44;;;;;;;3.60;2.72;;;;;;;;;;4190507;34;20107;-57
2021/03/09 12:32:10;;;;;;;3.45;2.25;;;;;;;;;;4188854;34;20110;-58
2021/03/09 12:34:36;;;;;;;3.22;2.40;;;;;;;;;;4176151;34;20141;-58
2021/03/09 12:37:02;;;;;;;4.37;1.90;;;;;;;;;;4189988;34;20565;-58
2021/03/09 12:39:28;;;;;;;3.03;2.35;;;;;;;;;;4190265;34;20218;-57
2021/03/09 12:41:54;;;;;;;4.65;2.58;;;;;;;;;;4190053;34;20205;-57
2021/03/09 12:44:20;;;;;;;3.42;2.42;;;;;;;;;;4190164;34;20122;-56
2021/03/09 12:46:46;;;;;;;3.25;2.45;;;;;;;;;;4190174;34;20107;-57
2021/03/09 12:49:12;;;;;;;3.00;2.37;;;;;;;;;;4192223;34;20116;-55
2021/03/09 12:51:38;;;;;;;4.07;2.65;;;;;;;;;;4192169;34;20112;-55
2021/03/09 12:54:08;;;;;;;3.17;2.37;;;;;;;;;;4192105;34;20225;-54
2021/03/09 12:56:33;;;;;;;4.00;2.75;;;;;;;;;;4192035;34;20507;-57
2021/03/09 12:59:00;;;;;;;4.50;2.87;;;;;;;;;;4191912;34;20114;-55
2021/03/09 13:01:26;;;;;;;3.90;3.00;;;;;;;;;;4192092;34;20136;-56
2021/03/09 13:03:52;;;;;;;4.20;2.70;;;;;;;;;;4192369;34;20137;-56
2021/03/09 13:06:18;;;;;;;4.25;2.92;;;;;;;;;;4192107;34;20114;-58
2021/03/09 13:08:44;;;;;;;5.37;3.90;;;;;;;;;;4179176;34;20562;-55
2021/03/09 13:11:10;;;;;;;4.60;3.60;;;;;;;;;;4192314;34;20117;-56
2021/03/09 13:13:36;;;;;;;5.62;3.67;;;;;;;;;;4192287;34;20543;-52
2021/03/09 13:16:02;;;;;;;6.95;4.43;;;;;;;;;;4191929;34;20102;-48
2021/03/09 13:18:28;;;;;;;6.03;4.40;;;;;;;;;;4192258;34;20109;-48
2021/03/09 13:20:54;;;;;;;4.00;2.45;;;;;;;;;;4191989;34;20450;-51
2021/03/09 13:23:21;;;;;;;3.03;2.20;;;;;;;;;;4192003;34;20108;-48
2021/03/09 13:25:47;;;;;;;2.95;2.60;;;;;;;;;;4191998;34;20230;-52
2021/03/09 13:28:13;;;;;;;4.53;2.58;;;;;;;;;;4191895;34;20130;-53
2021/03/09 13:30:39;;;;;;;3.55;2.37;;;;;;;;;;4191900;34;20134;-55
2021/03/09 13:33:05;;;;;;;4.72;2.20;;;;;;;;;;4191632;34;20144;-58
2021/03/09 13:35:31;;;;;;;3.58;2.17;;;;;;;;;;4191374;34;20206;-55
2021/03/09 13:37:58;;;;;;;3.20;2.42;;;;;;;;;;4191738;34;20134;-53
2021/03/09 13:40:24;;;;;;;2.85;2.45;;;;;;;;;;4191748;34;20118;-52
2021/03/09 13:42:49;;;;;;;4.97;3.00;;;;;;;;;;4191953;34;20133;-55
2021/03/09 13:45:16;;;;;;;5.45;2.85;;;;;;;;;;4191565;34;20133;-54
2021/03/09 13:47:42;;;;;;;4.15;3.15;;;;;;;;;;4191644;34;20129;-56
2021/03/09 13:50:09;;;;;;;5.05;3.10;;;;;;;;;;4189385;34;20122;-54
2021/03/09 13:52:35;;;;;;;3.60;3.03;;;;;;;;;;4191343;34;20133;-56
2021/03/09 13:55:05;;;;;;;3.83;3.12;;;;;;;;;;4178989;34;20113;-55
2021/03/09 13:57:31;;;;;;;4.28;3.37;;;;;;;;;;4191292;34;20118;-55
2021/03/09 13:59:57;;;;;;;4.68;3.10;;;;;;;;;;4178459;34;20116;-54
2021/03/09 14:02:23;;;;;;;4.25;3.65;;;;;;;;;;4191269;34;20526;-57
2021/03/09 14:04:49;;;;;;;4.35;3.83;;;;;;;;;;4191432;34;20098;-56
2021/03/09 14:07:15;;;;;;;4.80;3.65;;;;;;;;;;4191576;34;20514;-56
2021/03/09 14:09:41;;;;;;;4.80;4.28;;;;;;;;;;4191217;34;20112;-56
2021/03/09 14:12:08;;;;;;;6.03;3.72;;;;;;;;;;4191207;34;20141;-56
2021/03/09 14:14:34;;;;;;;5.85;4.32;;;;;;;;;;4191298;34;20108;-56
2021/03/09 14:17:00;;;;;;;4.65;4.07;;;;;;;;;;4191284;34;20455;-55
2021/03/09 14:19:27;;;;;;;5.00;4.50;;;;;;;;;;4191518;34;20104;-54
2021/03/09 14:21:54;;;;;;;5.43;4.25;;;;;;;;;;4191335;34;20218;-52
2021/03/09 14:24:22;;;;;;;7.05;4.65;;;;;;;;;;4189514;34;20689;-56
2021/03/09 14:26:48;;;;;;;5.93;4.72;;;;;;;;;;4176281;34;20138;-57
2021/03/09 14:29:14;;;;;;;5.80;4.95;;;;;;;;;;4188990;34;20110;-54
2021/03/09 14:31:41;;;;;;;8.73;5.45;;;;;;;;;;4189146;34;20136;-56
2021/03/09 14:34:06;;;;;;;6.32;5.07;;;;;;;;;;4189068;34;20126;-60
2021/03/09 14:36:32;;;;;;;7.15;5.93;;;;;;;;;;4189318;34;20245;-61
2021/03/09 14:38:59;;;;;;;11.40;7.37;;;;;;;;;;4190578;34;20098;-59
2021/03/09 14:41:25;;;;;;;12.70;8.90;;;;;;;;;;4191437;34;20086;-57
2021/03/09 14:43:52;;;;;;;9.65;7.40;;;;;;;;;;4191405;34;20206;-56
2021/03/09 14:46:17;;;;;;;8.48;6.95;;;;;;;;;;4190985;34;20194;-57
2021/03/09 14:48:43;;;;;;;6.40;5.68;;;;;;;;;;4191483;34;20192;-58
2021/03/09 14:51:09;;;;;;;5.95;4.70;;;;;;;;;;4191326;34;20125;-54
2021/03/09 14:53:35;;;;;;;6.00;4.90;;;;;;;;;;4191156;34;20114;-55
2021/03/09 14:56:01;;;;;;;6.32;5.35;;;;;;;;;;4191110;34;20236;-54